createdAt,value
2022-11-16T00:02:13.890Z,99966.00
2022-11-16T00:05:16.651Z,99958.34
2022-11-16T00:08:19.024Z,99950.78
2022-11-16T00:11:21.646Z,99945.19
2022-11-16T00:14:26.140Z,99940.75
2022-11-16T00:17:28.705Z,99933.72
2022-11-16T00:20:31.159Z,99932.16
2022-11-16T00:23:38.229Z,99937.63
2022-11-16T00:26:41.586Z,99930.59
2022-11-16T00:29:45.913Z,99928.03
2022-11-16T00:32:48.230Z,99925.16
2022-11-16T00:35:51.051Z,99921.06
2022-11-16T00:38:54.144Z,99924.50
2022-11-16T00:41:57.082Z,99922.94
2022-11-16T00:44:59.873Z,99923.50
2022-11-16T00:48:02.746Z,99928.22
2022-11-16T00:51:06.052Z,99922.84
2022-11-16T00:54:09.443Z,99919.91
2022-11-16T00:57:12.605Z,99913.03
2022-11-16T01:00:16.581Z,99915.28
2022-11-16T01:03:19.354Z,99912.13
2022-11-16T01:06:23.523Z,99898.41
2022-11-16T01:09:26.042Z,99893.72
2022-11-16T01:12:28.736Z,99879.50
2022-11-16T01:15:31.538Z,99883.09
2022-11-16T01:18:34.313Z,99877.00
2022-11-16T01:21:36.926Z,99875.66
2022-11-16T01:24:39.557Z,99882.31
2022-11-16T01:27:43.479Z,99880.06
2022-11-16T01:30:52.247Z,99873.50
2022-11-16T01:33:55.170Z,99864.25
2022-11-16T01:37:04.034Z,99870.66
2022-11-16T01:40:10.626Z,99859.25
2022-11-16T01:43:23.259Z,99860.53
2022-11-16T01:46:28.781Z,99860.25
2022-11-16T01:49:36.405Z,99860.13
2022-11-16T01:52:45.580Z,99856.69
2022-11-16T01:55:49.757Z,99843.44
2022-11-16T01:59:17.421Z,99830.13
2022-11-16T02:02:21.038Z,99831.00
2022-11-16T02:05:35.131Z,99830.72
2022-11-16T02:09:13.117Z,99827.78
2022-11-16T02:12:48.194Z,99822.78
2022-11-16T02:16:12.369Z,99824.53
2022-11-16T02:19:59.294Z,99809.91
2022-11-16T02:23:34.210Z,99814.13
2022-11-16T02:26:47.994Z,99798.06
2022-11-16T02:29:53.785Z,99806.50
2022-11-16T02:33:04.388Z,99799.50
2022-11-16T02:36:12.483Z,99788.78
2022-11-16T02:39:19.474Z,99786.91
2022-11-16T02:42:29.997Z,99784.75
2022-11-16T02:45:36.440Z,99794.56
2022-11-16T02:48:47.027Z,99787.91
2022-11-16T02:51:52.144Z,99781.13
2022-11-16T02:54:56.155Z,99784.22
2022-11-16T02:58:05.650Z,99781.69
2022-11-16T03:01:15.402Z,99769.63
2022-11-16T03:04:28.276Z,99783.06
2022-11-16T03:07:37.589Z,99773.31
2022-11-16T03:11:01.688Z,99774.50
2022-11-16T03:14:12.180Z,99767.53
2022-11-16T03:17:24.717Z,99755.09
2022-11-16T03:20:30.598Z,99744.41
2022-11-16T03:23:34.205Z,99741.56
2022-11-16T03:26:54.700Z,99750.00
2022-11-16T03:30:23.780Z,99747.91
2022-11-16T03:33:37.917Z,99739.41
2022-11-16T03:36:43.542Z,99734.13
2022-11-16T03:39:48.002Z,99736.66
2022-11-16T03:42:52.150Z,99734.78
2022-11-16T03:45:55.442Z,99739.50
2022-11-16T03:48:59.512Z,99729.38
2022-11-16T03:52:06.085Z,99726.44
2022-11-16T03:55:09.684Z,99727.53
2022-11-16T03:58:12.540Z,99718.00
2022-11-16T04:01:15.211Z,99714.97
2022-11-16T04:04:36.837Z,99712.34
2022-11-16T04:07:58.693Z,99714.09
2022-11-16T04:11:19.870Z,99697.91
2022-11-16T04:14:43.831Z,99687.22
2022-11-16T04:18:08.338Z,99685.66
2022-11-16T04:21:47.695Z,99679.84
2022-11-16T04:24:59.128Z,99673.91
2022-11-16T04:28:16.186Z,99671.75
2022-11-16T04:31:59.453Z,99666.59
2022-11-16T04:35:21.700Z,99652.28
2022-11-16T04:38:24.312Z,99660.38
2022-11-16T04:41:46.122Z,99661.81
2022-11-16T04:45:07.687Z,99663.13
2022-11-16T04:48:19.661Z,99656.22
2022-11-16T04:51:22.814Z,99656.47
2022-11-16T04:54:25.338Z,99647.63
2022-11-16T04:57:28.604Z,99650.94
2022-11-16T05:00:32.266Z,99651.72
2022-11-16T05:03:35.841Z,99648.41
2022-11-16T05:06:38.657Z,99650.56
2022-11-16T05:09:49.511Z,99653.81
2022-11-16T05:12:52.668Z,99655.38
2022-11-16T05:15:55.805Z,99655.56
2022-11-16T05:19:17.626Z,99652.31
2022-11-16T05:22:20.703Z,99647.78
2022-11-16T05:25:25.589Z,99652.63
2022-11-16T05:28:29.226Z,99651.53
2022-11-16T05:31:36.340Z,99653.56
2022-11-16T05:34:44.235Z,99657.97
2022-11-16T05:37:47.059Z,99651.41
2022-11-16T05:40:49.931Z,99644.53
2022-11-16T05:43:55.370Z,99637.28
2022-11-16T05:46:58.435Z,99630.53
2022-11-16T05:50:01.133Z,99634.94
2022-11-16T05:53:09.119Z,99630.41
2022-11-16T05:56:14.336Z,99642.22
2022-11-16T05:59:20.362Z,99643.00
2022-11-16T06:02:25.649Z,99628.69
2022-11-16T06:05:28.421Z,99636.50
2022-11-16T06:08:32.729Z,99629.34
2022-11-16T06:11:39.262Z,99618.88
2022-11-16T06:14:42.590Z,99618.91
2022-11-16T06:17:45.449Z,99620.00
2022-11-16T06:20:48.965Z,99620.00
2022-11-16T06:23:52.818Z,99626.56
2022-11-16T06:26:55.318Z,99617.69
2022-11-16T06:29:58.345Z,99618.47
2022-11-16T06:33:00.907Z,99619.34
2022-11-16T06:36:03.919Z,99623.25
2022-11-16T06:39:07.289Z,99621.38
2022-11-16T06:42:12.642Z,99618.44
2022-11-16T06:45:16.188Z,99611.75
2022-11-16T06:48:25.594Z,99618.25
2022-11-16T06:51:28.149Z,99610.19
2022-11-16T06:54:31.062Z,99598.69
2022-11-16T06:57:35.747Z,99599.34
2022-11-16T07:00:40.279Z,99603.41
2022-11-16T07:03:45.390Z,99608.06
2022-11-16T07:06:50.402Z,99603.09
2022-11-16T07:09:55.593Z,99597.16
2022-11-16T07:13:04.566Z,99595.44
2022-11-16T07:16:10.130Z,99594.03
2022-11-16T07:19:15.931Z,99589.69
2022-11-16T07:22:19.170Z,99579.09
2022-11-16T07:25:22.068Z,99583.78
2022-11-16T07:28:24.745Z,99576.63
2022-11-16T07:31:27.876Z,99581.91
2022-11-16T07:35:08.902Z,99571.97
2022-11-16T07:38:17.868Z,99572.09
2022-11-16T07:41:21.761Z,99568.06
2022-11-16T07:44:44.411Z,99566.66
2022-11-16T07:47:47.971Z,99557.88
2022-11-16T07:51:06.329Z,99554.31
2022-11-16T07:54:15.553Z,99556.19
2022-11-16T07:57:18.184Z,99565.88
2022-11-16T08:00:21.441Z,99564.47
2022-11-16T08:03:34.882Z,99571.47
2022-11-16T08:06:40.499Z,99561.03
2022-11-16T08:09:43.553Z,99567.13
2022-11-16T08:12:50.268Z,99562.59
2022-11-16T08:15:54.907Z,99565.91
2022-11-16T08:18:58.525Z,99559.81
2022-11-16T08:22:01.165Z,99560.28
2022-11-16T08:25:07.017Z,99566.69
2022-11-16T08:28:09.658Z,99567.59
2022-11-16T08:31:19.267Z,99556.69
2022-11-16T08:34:24.752Z,99561.97
2022-11-16T08:37:33.938Z,99557.16
2022-11-16T08:40:37.200Z,99557.94
2022-11-16T08:43:40.659Z,99559.50
2022-11-16T08:46:43.967Z,99556.06
2022-11-16T08:50:03.585Z,99566.06
2022-11-16T08:53:06.621Z,99561.06
2022-11-16T08:56:13.564Z,99557.63
2022-11-16T08:59:18.419Z,99559.97
2022-11-16T09:02:27.188Z,99552.47
2022-11-16T09:05:30.651Z,99550.59
2022-11-16T09:08:34.699Z,99539.34
2022-11-16T09:11:37.916Z,99540.59
2022-11-16T09:14:40.906Z,99540.91
2022-11-16T09:17:43.507Z,99535.28
2022-11-16T09:20:46.370Z,99538.72
2022-11-16T09:23:49.755Z,99537.19
2022-11-16T09:26:52.404Z,99540.44
2022-11-16T09:29:54.866Z,99538.75
2022-11-16T09:33:01.214Z,99533.09
2022-11-16T09:36:09.120Z,99527.47
2022-11-16T09:39:30.253Z,99524.03
2022-11-16T09:43:01.257Z,99522.03
2022-11-16T09:46:25.329Z,99509.84
2022-11-16T09:49:35.908Z,99511.41
2022-11-16T09:52:43.256Z,99505.16
2022-11-16T09:56:00.913Z,99494.69
2022-11-16T09:59:15.034Z,99492.19
2022-11-16T10:02:27.443Z,99494.38
2022-11-16T10:05:43.765Z,99484.81
2022-11-16T10:08:49.070Z,99486.22
2022-11-16T10:12:09.969Z,99477.63
2022-11-16T10:15:28.527Z,99475.16
2022-11-16T10:19:03.041Z,99461.06
2022-11-16T10:22:43.248Z,99455.44
2022-11-16T10:25:52.105Z,99459.03
2022-11-16T10:29:25.173Z,99455.09
2022-11-16T10:32:36.297Z,99459.91
2022-11-16T10:35:43.129Z,99447.09
2022-11-16T10:38:46.000Z,99447.75
2022-11-16T10:41:51.924Z,99442.59
2022-11-16T10:45:06.956Z,99435.72
2022-11-16T10:48:22.742Z,99427.44
2022-11-16T10:51:25.723Z,99427.63
2022-11-16T10:54:28.341Z,99438.00
2022-11-16T10:57:55.524Z,99424.72
2022-11-16T11:00:59.332Z,99419.72
2022-11-16T11:04:16.081Z,99413.84
2022-11-16T11:07:30.112Z,99411.78
2022-11-16T11:10:38.970Z,99402.91
2022-11-16T11:13:41.508Z,99397.59
2022-11-16T11:16:44.163Z,99387.09
2022-11-16T11:19:48.035Z,99377.56
2022-11-16T11:23:02.450Z,99387.31
2022-11-16T11:26:05.742Z,99389.38
2022-11-16T11:29:24.782Z,99386.91
2022-11-16T11:32:35.018Z,99396.13
2022-11-16T11:35:38.175Z,99387.50
2022-11-16T11:39:03.687Z,99385.19
2022-11-16T11:42:21.249Z,99377.34
2022-11-16T11:45:57.007Z,99377.53
2022-11-16T11:49:06.591Z,99370.53
2022-11-16T11:52:19.339Z,99368.00
2022-11-16T11:55:22.162Z,99365.81
2022-11-16T11:58:34.211Z,99356.78
2022-11-16T12:01:47.041Z,99357.44
2022-11-16T12:05:10.478Z,99354.78
2022-11-16T12:08:48.409Z,99348.50
2022-11-16T12:11:57.023Z,99346.31
2022-11-16T12:15:16.981Z,99344.44
2022-11-16T12:18:41.279Z,99347.72
2022-11-16T12:22:05.249Z,99346.06
2022-11-16T12:25:34.587Z,99343.06
2022-11-16T12:28:51.305Z,99342.75
2022-11-16T12:32:15.492Z,99350.22
2022-11-16T12:35:47.854Z,99342.25
2022-11-16T12:39:13.008Z,99342.88
2022-11-16T12:42:24.010Z,99341.56
2022-11-16T12:45:46.356Z,99329.28
2022-11-16T12:48:57.759Z,99320.78
2022-11-16T12:52:11.839Z,99319.59
2022-11-16T12:55:34.590Z,99316.84
2022-11-16T12:58:59.289Z,99316.09
2022-11-16T13:02:21.526Z,99311.06
2022-11-16T13:05:49.842Z,99318.56
2022-11-16T13:08:52.512Z,99312.16
2022-11-16T13:11:58.325Z,99314.34
2022-11-16T13:15:03.087Z,99297.00
2022-11-16T13:18:11.298Z,99310.13
2022-11-16T13:21:20.287Z,99296.72
2022-11-16T13:24:48.801Z,99304.03
2022-11-16T13:28:00.816Z,99304.75
2022-11-16T13:31:38.385Z,99300.53
2022-11-16T13:34:41.750Z,99295.72
2022-11-16T13:37:46.094Z,99299.00
2022-11-16T13:40:48.916Z,99289.00
2022-11-16T13:43:51.330Z,99290.09
2022-11-16T13:47:06.348Z,99295.28
2022-11-16T13:50:19.374Z,99295.41
2022-11-16T13:54:43.184Z,99294.06
2022-11-16T13:57:33.638Z,99299.31
2022-11-16T14:00:40.412Z,99293.53
2022-11-16T14:03:43.532Z,99288.88
2022-11-16T14:06:46.178Z,99285.09
2022-11-16T14:09:49.328Z,99285.31
2022-11-16T14:12:53.358Z,99277.28
2022-11-16T14:16:22.648Z,99277.94
2022-11-16T14:19:47.723Z,99281.44
2022-11-16T14:23:00.416Z,99273.00
2022-11-16T14:26:02.972Z,99269.09
2022-11-16T14:29:20.135Z,99261.56
2022-11-16T14:32:36.992Z,99265.63
2022-11-16T14:35:52.557Z,99256.13
2022-11-16T14:38:55.501Z,99244.91
2022-11-16T14:42:03.198Z,99238.03
2022-11-16T14:45:11.962Z,99237.13
2022-11-16T14:48:25.825Z,99239.97
2022-11-16T14:51:35.758Z,99229.38
2022-11-16T14:54:46.504Z,99231.56
2022-11-16T14:57:49.090Z,99228.28
2022-11-16T15:01:04.823Z,99218.28
2022-11-16T15:04:09.307Z,99229.16
2022-11-16T15:07:14.489Z,99225.72
2022-11-16T15:10:24.091Z,99222.97
2022-11-16T15:13:27.172Z,99219.53
2022-11-16T15:16:29.702Z,99223.28
2022-11-16T15:19:32.108Z,99218.75
2022-11-16T15:22:42.438Z,99220.63
2022-11-16T15:25:56.021Z,99205.97
2022-11-16T15:28:59.845Z,99213.63
2022-11-16T15:32:02.499Z,99209.91
2022-11-16T15:35:05.802Z,99204.25
2022-11-16T15:38:26.477Z,99210.19
2022-11-16T15:41:29.665Z,99212.06
2022-11-16T15:44:33.338Z,99215.50
2022-11-16T15:47:37.653Z,99219.38
2022-11-16T15:50:40.200Z,99207.53
2022-11-16T15:53:48.205Z,99217.31
2022-11-16T15:56:53.659Z,99209.69
2022-11-16T16:00:00.106Z,99206.44
2022-11-16T16:03:06.489Z,99207.22
2022-11-16T16:06:15.422Z,99206.91
2022-11-16T16:09:34.629Z,99207.22
2022-11-16T16:12:47.960Z,99204.69
2022-11-16T16:16:11.505Z,99198.47
2022-11-16T16:19:35.819Z,99200.28
2022-11-16T16:22:38.271Z,99189.88
2022-11-16T16:25:42.800Z,99188.13
2022-11-16T16:28:48.706Z,99183.34
2022-11-16T16:31:51.419Z,99177.25
2022-11-16T16:34:56.035Z,99179.00
2022-11-16T16:38:01.087Z,99182.88
2022-11-16T16:41:05.393Z,99173.03
2022-11-16T16:44:15.334Z,99169.75
2022-11-16T16:47:20.776Z,99169.75
2022-11-16T16:50:23.456Z,99174.41
2022-11-16T16:53:25.789Z,99173.50
2022-11-16T16:56:28.710Z,99173.03
2022-11-16T16:59:31.905Z,99168.97
2022-11-16T17:02:37.179Z,99172.25
2022-11-16T17:05:39.590Z,99168.38
2022-11-16T17:08:42.322Z,99160.72
2022-11-16T17:11:47.014Z,99157.63
2022-11-16T17:14:52.902Z,99161.69
2022-11-16T17:17:57.744Z,99159.19
2022-11-16T17:21:08.901Z,99159.38
2022-11-16T17:24:11.749Z,99157.63
2022-11-16T17:27:14.735Z,99152.84
2022-11-16T17:30:17.477Z,99150.19
2022-11-16T17:33:20.330Z,99157.38
2022-11-16T17:36:23.051Z,99139.69
2022-11-16T17:39:26.968Z,99147.47
2022-11-16T17:42:29.616Z,99140.94
2022-11-16T17:45:33.191Z,99141.59
2022-11-16T17:48:36.649Z,99140.59
2022-11-16T17:51:39.508Z,99142.81
2022-11-16T17:54:42.131Z,99137.03
2022-11-16T17:57:45.125Z,99126.63
2022-11-16T18:00:49.834Z,99131.94
2022-11-16T18:03:52.697Z,99135.50
2022-11-16T18:06:56.054Z,99131.00
2022-11-16T18:09:59.386Z,99131.72
2022-11-16T18:13:02.034Z,99135.75
2022-11-16T18:16:12.589Z,99141.72
2022-11-16T18:19:17.578Z,99129.84
2022-11-16T18:22:20.571Z,99129.16
2022-11-16T18:25:24.569Z,99133.69
2022-11-16T18:28:27.258Z,99133.25
2022-11-16T18:31:32.895Z,99135.75
2022-11-16T18:34:35.785Z,99126.56
2022-11-16T18:37:38.474Z,99132.31
2022-11-16T18:40:41.493Z,99129.50
2022-11-16T18:43:55.519Z,99123.28
2022-11-16T18:46:58.333Z,99110.31
2022-11-16T18:50:01.190Z,99100.50
2022-11-16T18:53:04.285Z,99099.72
2022-11-16T18:56:08.318Z,99107.69
2022-11-16T18:59:11.162Z,99099.41
2022-11-16T19:02:14.080Z,99094.72
2022-11-16T19:05:17.071Z,99089.09
2022-11-16T19:08:20.060Z,99093.31
2022-11-16T19:11:24.122Z,99087.22
2022-11-16T19:14:26.903Z,99090.53
2022-11-16T19:17:30.659Z,99091.63
2022-11-16T19:20:33.828Z,99097.38
2022-11-16T19:23:42.995Z,99083.34
2022-11-16T19:26:45.936Z,99084.56
2022-11-16T19:29:50.317Z,99098.44
2022-11-16T19:33:00.637Z,99086.44
2022-11-16T19:36:08.286Z,99098.94
2022-11-16T19:39:11.345Z,99099.16
2022-11-16T19:42:14.354Z,99090.41
2022-11-16T19:45:17.151Z,99088.97
2022-11-16T19:48:20.263Z,99086.31
2022-11-16T19:51:28.416Z,99078.50
2022-11-16T19:54:31.661Z,99085.28
2022-11-16T19:57:34.461Z,99079.22
2022-11-16T20:00:37.608Z,99074.78
2022-11-16T20:03:41.850Z,99083.09
2022-11-16T20:06:44.714Z,99074.69
2022-11-16T20:09:53.221Z,99077.91
2022-11-16T20:12:57.008Z,99068.38
2022-11-16T20:16:01.503Z,99069.47
2022-11-16T20:19:06.365Z,99063.97
2022-11-16T20:22:09.341Z,99059.00
2022-11-16T20:25:13.131Z,99062.09
2022-11-16T20:28:15.856Z,99053.69
2022-11-16T20:31:21.158Z,99059.00
2022-11-16T20:34:24.002Z,99063.66
2022-11-16T20:37:26.838Z,99054.16
2022-11-16T20:40:29.326Z,99054.16
2022-11-16T20:43:32.390Z,99059.13
2022-11-16T20:46:37.804Z,99048.38
2022-11-16T20:49:40.719Z,99044.19
2022-11-16T20:52:47.201Z,99045.41
2022-11-16T20:55:53.227Z,99030.91
2022-11-16T20:58:56.917Z,99040.41
2022-11-16T21:01:59.749Z,99035.44
2022-11-16T21:05:02.445Z,99037.63
2022-11-16T21:08:05.385Z,99028.91
2022-11-16T21:11:54.086Z,99031.81
2022-11-16T21:14:56.675Z,99034.00
2022-11-16T21:17:59.408Z,99028.72
2022-11-16T21:21:04.089Z,99029.81
2022-11-16T21:24:10.386Z,99023.59
2022-11-16T21:27:12.906Z,99024.38
2022-11-16T21:30:15.696Z,99026.25
2022-11-16T21:33:18.298Z,99025.72
2022-11-16T21:36:26.473Z,99018.41
2022-11-16T21:39:29.195Z,99017.97
2022-11-16T21:42:31.903Z,99009.81
2022-11-16T21:45:35.620Z,99006.69
2022-11-16T21:48:38.340Z,98999.38
2022-11-16T21:51:40.933Z,99000.16
2022-11-16T21:54:50.924Z,99000.63
2022-11-16T21:57:53.578Z,99004.38
2022-11-16T22:00:57.682Z,98997.06
2022-11-16T22:04:18.762Z,99008.44
2022-11-16T22:07:36.821Z,99001.25
2022-11-16T22:10:42.022Z,98998.19
2022-11-16T22:13:44.636Z,99003.03
2022-11-16T22:16:47.270Z,99002.72
2022-11-16T22:19:49.729Z,98995.53
2022-11-16T22:22:52.832Z,99003.03
2022-11-16T22:26:00.561Z,99002.59
2022-11-16T22:29:03.320Z,98990.13
2022-11-16T22:32:05.852Z,98995.75
2022-11-16T22:35:09.199Z,98988.00
2022-11-16T22:38:11.643Z,98983.78
2022-11-16T22:41:14.186Z,98978.72
2022-11-16T22:44:16.765Z,98976.38
2022-11-16T22:47:19.602Z,98980.59
2022-11-16T22:50:24.031Z,98976.06
2022-11-16T22:53:26.715Z,98973.84
2022-11-16T22:56:31.114Z,98970.44
2022-11-16T22:59:33.760Z,98963.69
2022-11-16T23:02:36.343Z,98965.00
2022-11-16T23:05:38.822Z,98960.13
2022-11-16T23:08:41.860Z,98954.06
2022-11-16T23:12:02.942Z,98945.13
2022-11-16T23:15:24.326Z,98946.41
2022-11-16T23:18:26.921Z,98943.00
2022-11-16T23:21:48.194Z,98947.31
2022-11-16T23:25:09.480Z,98942.88
2022-11-16T23:28:16.592Z,98945.00
2022-11-16T23:31:19.398Z,98944.09
2022-11-16T23:34:22.153Z,98952.50
2022-11-16T23:37:24.896Z,98934.59
2022-11-16T23:40:33.783Z,98939.13
2022-11-16T23:43:54.840Z,98946.28
2022-11-16T23:46:57.580Z,98947.72
2022-11-16T23:50:00.530Z,98943.63
2022-11-16T23:53:03.368Z,98946.28
2022-11-16T23:56:06.437Z,98943.19
2022-11-16T23:59:08.866Z,98929.38
